createdAt,value
2018-07-27T00:00:11.049Z,5.77
2018-07-27T00:02:40.266Z,5.30
2018-07-27T00:05:09.443Z,6.33
2018-07-27T00:07:38.699Z,6.20
2018-07-27T00:10:08.680Z,5.83
2018-07-27T00:12:37.910Z,6.27
2018-07-27T00:15:07.170Z,5.90
2018-07-27T00:17:36.416Z,5.83
2018-07-27T00:20:06.042Z,5.87
2018-07-27T00:22:35.420Z,6.17
2018-07-27T00:25:04.697Z,6.70
2018-07-27T00:27:34.097Z,6.20
2018-07-27T00:30:03.521Z,6.60
2018-07-27T00:32:32.636Z,6.57
2018-07-27T00:35:01.833Z,5.93
2018-07-27T00:37:30.941Z,6.03
2018-07-27T00:40:00.589Z,6.43
2018-07-27T00:42:29.783Z,7.07
2018-07-27T00:44:59.020Z,6.63
2018-07-27T00:47:28.216Z,6.80
2018-07-27T00:49:57.370Z,6.80
2018-07-27T00:52:27.527Z,6.30
2018-07-27T00:54:56.856Z,6.40
2018-07-27T00:57:26.035Z,6.60
2018-07-27T00:59:54.948Z,6.30
2018-07-27T01:02:24.212Z,6.90
2018-07-27T01:04:53.369Z,7.00
2018-07-27T01:07:22.624Z,6.67
2018-07-27T01:09:51.721Z,6.70
2018-07-27T01:12:21.594Z,7.07
2018-07-27T01:14:50.780Z,6.83
2018-07-27T01:17:20.125Z,7.03
2018-07-27T01:19:49.268Z,7.27
2018-07-27T01:22:18.600Z,7.23
2018-07-27T01:24:47.688Z,6.70
2018-07-27T01:27:16.906Z,7.80
2018-07-27T01:29:45.988Z,7.37
2018-07-27T01:32:15.212Z,7.83
2018-07-27T01:34:44.384Z,7.60
2018-07-27T01:37:13.621Z,7.33
2018-07-27T01:39:42.707Z,7.63
2018-07-27T01:42:12.036Z,7.60
2018-07-27T01:44:41.263Z,7.83
2018-07-27T01:47:10.536Z,7.20
2018-07-27T01:49:39.804Z,8.27
2018-07-27T01:52:09.006Z,8.00
2018-07-27T01:54:38.139Z,8.50
2018-07-27T01:57:07.523Z,7.70
2018-07-27T01:59:36.711Z,8.13
2018-07-27T02:02:06.002Z,7.73
2018-07-27T02:04:35.092Z,6.90
2018-07-27T02:07:04.338Z,7.80
2018-07-27T02:09:33.720Z,7.70
2018-07-27T02:12:02.856Z,7.53
2018-07-27T02:14:32.112Z,7.33
2018-07-27T02:17:01.292Z,7.40
2018-07-27T02:19:30.410Z,7.20
2018-07-27T02:21:59.587Z,6.80
2018-07-27T02:24:28.966Z,6.93
2018-07-27T02:26:58.298Z,6.90
2018-07-27T02:29:27.436Z,6.50
2018-07-27T02:31:56.573Z,6.83
2018-07-27T02:34:25.765Z,6.67
2018-07-27T02:36:54.985Z,5.93
2018-07-27T02:39:24.067Z,6.60
2018-07-27T02:41:53.304Z,6.50
2018-07-27T02:44:29.033Z,6.50
2018-07-27T02:46:58.444Z,6.27
2018-07-27T02:49:27.643Z,6.20
2018-07-27T02:51:56.827Z,6.80
2018-07-27T02:54:25.969Z,6.77
2018-07-27T02:56:55.160Z,6.83
2018-07-27T02:59:24.956Z,6.17
2018-07-27T03:01:55.036Z,6.57
2018-07-27T03:04:24.264Z,6.57
2018-07-27T03:06:53.407Z,6.87
2018-07-27T03:09:22.623Z,6.63
2018-07-27T03:11:51.867Z,6.20
2018-07-27T03:14:21.112Z,6.73
2018-07-27T03:16:50.299Z,6.67
2018-07-27T03:19:19.451Z,6.67
2018-07-27T03:21:48.777Z,6.80
2018-07-27T03:24:17.994Z,6.33
2018-07-27T03:26:47.323Z,6.57
2018-07-27T03:29:16.450Z,6.60
2018-07-27T03:31:45.772Z,7.00
2018-07-27T03:34:14.882Z,6.83
2018-07-27T03:36:44.059Z,6.57
2018-07-27T03:39:12.893Z,7.10
2018-07-27T03:41:41.879Z,7.20
2018-07-27T03:44:11.132Z,6.60
2018-07-27T03:46:40.379Z,7.27
2018-07-27T03:49:09.474Z,6.50
2018-07-27T03:51:38.728Z,6.60
2018-07-27T03:54:07.933Z,7.30
2018-07-27T03:56:37.259Z,8.07
2018-07-27T03:59:06.839Z,7.40
2018-07-27T04:01:36.028Z,7.77
2018-07-27T04:04:05.144Z,8.33
2018-07-27T04:06:34.552Z,7.67
2018-07-27T04:09:04.012Z,7.83
2018-07-27T04:11:33.163Z,7.50
2018-07-27T04:14:02.851Z,7.70
2018-07-27T04:16:32.366Z,7.93
2018-07-27T04:19:01.282Z,8.10
2018-07-27T04:21:30.352Z,7.83
2018-07-27T04:23:59.624Z,8.37
2018-07-27T04:26:28.859Z,8.07
2018-07-27T04:28:58.411Z,8.47
2018-07-27T04:31:27.549Z,8.37
2018-07-27T04:33:57.168Z,8.50
2018-07-27T04:36:26.476Z,7.70
2018-07-27T04:38:55.565Z,8.47
2018-07-27T04:41:24.972Z,8.00
2018-07-27T04:43:54.167Z,8.07
2018-07-27T04:46:23.383Z,8.20
2018-07-27T04:48:52.523Z,7.93
2018-07-27T04:51:21.671Z,7.33
2018-07-27T04:53:50.963Z,7.67
2018-07-27T04:56:20.066Z,8.03
2018-07-27T04:58:49.209Z,8.17
2018-07-27T05:01:18.347Z,7.33
2018-07-27T05:03:47.531Z,7.93
2018-07-27T05:06:16.740Z,7.30
2018-07-27T05:08:51.144Z,7.70
2018-07-27T05:11:20.392Z,7.40
2018-07-27T05:13:49.807Z,8.60
2018-07-27T05:16:18.903Z,7.57
2018-07-27T05:18:48.054Z,7.90
2018-07-27T05:21:17.286Z,7.73
2018-07-27T05:23:46.455Z,8.03
2018-07-27T05:26:15.726Z,7.10
2018-07-27T05:28:45.572Z,7.57
2018-07-27T05:31:14.853Z,7.33
2018-07-27T05:33:43.974Z,7.23
2018-07-27T05:36:13.176Z,7.80
2018-07-27T05:38:48.911Z,7.30
2018-07-27T05:41:18.035Z,6.93
2018-07-27T05:43:47.234Z,6.87
2018-07-27T05:46:16.332Z,7.60
2018-07-27T05:48:45.669Z,6.43
2018-07-27T05:51:14.925Z,6.57
2018-07-27T05:53:44.126Z,6.40
2018-07-27T05:56:13.341Z,6.37
2018-07-27T05:58:42.521Z,6.40
2018-07-27T06:01:11.793Z,6.23
2018-07-27T06:03:41.052Z,6.50
2018-07-27T06:06:10.251Z,6.43
2018-07-27T06:08:39.504Z,6.33
2018-07-27T06:11:09.055Z,6.40
2018-07-27T06:13:38.429Z,6.40
2018-07-27T06:16:08.172Z,6.57
2018-07-27T06:18:37.330Z,6.00
2018-07-27T06:21:06.695Z,6.10
2018-07-27T06:23:35.760Z,6.07
2018-07-27T06:26:04.968Z,5.67
2018-07-27T06:28:34.223Z,6.00
2018-07-27T06:31:03.471Z,5.93
2018-07-27T06:33:32.701Z,5.40
2018-07-27T06:36:01.897Z,5.77
2018-07-27T06:38:31.228Z,5.93
2018-07-27T06:41:00.444Z,5.83
2018-07-27T06:43:29.605Z,5.47
2018-07-27T06:45:58.833Z,5.80
2018-07-27T06:48:27.926Z,6.30
2018-07-27T06:50:57.154Z,5.53
2018-07-27T06:53:26.344Z,5.80
2018-07-27T06:55:55.739Z,5.53
2018-07-27T06:58:24.897Z,5.20
2018-07-27T07:00:54.140Z,5.75
2018-07-27T07:03:23.313Z,5.67
2018-07-27T07:05:52.568Z,5.70
2018-07-27T07:08:21.798Z,4.92
2018-07-27T07:10:51.049Z,6.00
2018-07-27T07:13:21.129Z,5.22
2018-07-27T07:15:50.319Z,5.20
2018-07-27T07:18:19.475Z,5.58
2018-07-27T07:20:48.758Z,5.30
2018-07-27T07:23:17.875Z,5.50
2018-07-27T07:25:47.107Z,5.65
2018-07-27T07:28:17.287Z,5.58
2018-07-27T07:30:46.642Z,5.08
2018-07-27T07:33:15.846Z,5.30
2018-07-27T07:35:45.197Z,5.22
2018-07-27T07:38:14.475Z,6.00
2018-07-27T07:40:43.659Z,5.10
2018-07-27T07:43:12.951Z,5.12
2018-07-27T07:45:42.141Z,5.55
2018-07-27T07:48:11.248Z,5.33
2018-07-27T07:50:40.393Z,5.17
2018-07-27T07:53:09.667Z,5.08
2018-07-27T07:55:39.369Z,4.90
2018-07-27T07:58:08.753Z,5.22
2018-07-27T08:00:37.943Z,5.12
2018-07-27T08:03:07.128Z,5.17
2018-07-27T08:05:36.428Z,5.50
2018-07-27T08:08:05.999Z,5.25
2018-07-27T08:10:35.188Z,5.47
2018-07-27T08:13:04.382Z,4.37
2018-07-27T08:15:33.573Z,4.87
2018-07-27T08:18:02.877Z,5.42
2018-07-27T08:20:32.468Z,4.87
2018-07-27T08:23:01.779Z,4.95
2018-07-27T08:25:43.325Z,5.05
2018-07-27T08:28:23.836Z,5.55
2018-07-27T08:30:53.043Z,4.75
2018-07-27T08:33:22.331Z,4.42
2018-07-27T08:35:51.638Z,4.92
2018-07-27T08:38:21.044Z,5.47
2018-07-27T08:40:50.248Z,5.28
2018-07-27T08:43:19.517Z,5.62
2018-07-27T08:45:48.696Z,4.97
2018-07-27T08:48:17.946Z,5.35
2018-07-27T08:50:47.257Z,5.10
2018-07-27T08:53:16.428Z,5.28
2018-07-27T08:55:45.616Z,5.28
2018-07-27T08:58:14.842Z,4.62
2018-07-27T09:00:53.036Z,5.17
2018-07-27T09:03:22.329Z,5.10
2018-07-27T09:05:51.630Z,4.85
2018-07-27T09:08:21.094Z,4.83
2018-07-27T09:10:50.279Z,5.17
2018-07-27T09:13:19.739Z,5.00
2018-07-27T09:15:49.142Z,4.50
2018-07-27T09:18:18.362Z,5.08
2018-07-27T09:20:47.561Z,4.30
2018-07-27T09:23:16.729Z,4.42
2018-07-27T09:25:45.993Z,4.70
2018-07-27T09:28:15.278Z,4.87
2018-07-27T09:30:44.458Z,4.75
2018-07-27T09:33:13.640Z,4.05
2018-07-27T09:35:43.524Z,4.92
2018-07-27T09:38:12.774Z,4.60
2018-07-27T09:40:41.567Z,4.53
2018-07-27T09:43:10.640Z,4.75
2018-07-27T09:45:39.843Z,4.55
2018-07-27T09:48:09.000Z,4.17
2018-07-27T09:50:38.242Z,4.17
2018-07-27T09:53:07.636Z,4.08
2018-07-27T09:55:37.520Z,4.08
2018-07-27T09:58:06.821Z,3.87
2018-07-27T10:00:41.416Z,3.92
2018-07-27T10:03:12.809Z,4.40
2018-07-27T10:05:42.039Z,3.92
2018-07-27T10:08:11.294Z,3.85
2018-07-27T10:10:40.439Z,4.00
2018-07-27T10:13:09.741Z,3.83
2018-07-27T10:15:38.920Z,4.00
2018-07-27T10:18:08.107Z,3.40
2018-07-27T10:20:37.428Z,3.42
2018-07-27T10:23:06.608Z,4.05
2018-07-27T10:25:46.161Z,3.80
2018-07-27T10:28:15.460Z,3.65
2018-07-27T10:30:44.677Z,3.50
2018-07-27T10:33:13.556Z,3.60
2018-07-27T10:35:42.740Z,3.60
2018-07-27T10:38:12.191Z,3.50
2018-07-27T10:40:41.297Z,3.05
2018-07-27T10:43:10.512Z,3.20
2018-07-27T10:45:39.725Z,3.00
2018-07-27T10:48:08.940Z,2.67
2018-07-27T10:50:38.049Z,3.15
2018-07-27T10:53:07.166Z,2.87
2018-07-27T10:55:36.592Z,3.20
2018-07-27T10:58:05.944Z,3.10
2018-07-27T11:00:35.259Z,2.47
2018-07-27T11:03:04.399Z,2.75
2018-07-27T11:05:34.699Z,2.42
2018-07-27T11:08:04.016Z,2.40
2018-07-27T11:10:33.119Z,2.35
2018-07-27T11:13:02.880Z,2.70
2018-07-27T11:15:32.164Z,2.83
2018-07-27T11:18:01.492Z,2.65
2018-07-27T11:20:30.692Z,2.83
2018-07-27T11:22:59.985Z,2.50
2018-07-27T11:25:29.176Z,2.52
2018-07-27T11:27:59.403Z,2.85
2018-07-27T11:30:28.645Z,2.40
2018-07-27T11:32:57.945Z,2.62
2018-07-27T11:35:27.137Z,2.42
2018-07-27T11:37:56.419Z,2.37
2018-07-27T11:40:25.676Z,2.30
2018-07-27T11:42:54.814Z,2.40
2018-07-27T11:45:23.957Z,2.72
2018-07-27T11:47:53.205Z,2.70
2018-07-27T11:50:22.123Z,2.40
2018-07-27T11:52:51.317Z,2.65
2018-07-27T11:55:20.483Z,2.30
2018-07-27T11:57:49.773Z,2.58
2018-07-27T12:00:19.571Z,2.37
2018-07-27T12:02:48.819Z,2.30
2018-07-27T12:05:17.979Z,2.40
2018-07-27T12:07:47.144Z,2.08
2018-07-27T12:10:16.427Z,2.40
2018-07-27T12:12:45.687Z,2.47
2018-07-27T12:15:15.288Z,2.45
2018-07-27T12:17:44.430Z,2.42
2018-07-27T12:20:13.758Z,2.12
2018-07-27T12:22:42.894Z,2.10
2018-07-27T12:25:12.097Z,2.30
2018-07-27T12:27:41.442Z,2.20
2018-07-27T12:30:10.726Z,2.40
2018-07-27T12:32:39.988Z,2.62
2018-07-27T12:35:09.115Z,2.20
2018-07-27T12:37:38.252Z,2.12
2018-07-27T12:40:07.582Z,2.45
2018-07-27T12:42:36.710Z,2.10
2018-07-27T12:45:06.002Z,2.25
2018-07-27T12:47:35.136Z,2.30
2018-07-27T12:50:04.604Z,2.02
2018-07-27T12:52:34.476Z,2.20
2018-07-27T12:55:04.050Z,2.10
2018-07-27T12:57:33.862Z,2.20
2018-07-27T13:00:03.206Z,2.20
2018-07-27T13:02:32.389Z,2.05
2018-07-27T13:05:01.644Z,2.10
2018-07-27T13:07:30.932Z,2.17
2018-07-27T13:10:07.541Z,2.90
2018-07-27T13:12:37.818Z,2.20
2018-07-27T13:15:08.172Z,2.27
2018-07-27T13:17:37.701Z,2.35
2018-07-27T13:20:07.553Z,2.00
2018-07-27T13:22:36.813Z,2.12
2018-07-27T13:25:05.936Z,2.30
2018-07-27T13:27:36.937Z,2.10
2018-07-27T13:30:06.572Z,1.92
2018-07-27T13:32:35.733Z,2.17
2018-07-27T13:35:04.963Z,2.27
2018-07-27T13:37:35.255Z,2.00
2018-07-27T13:40:05.600Z,2.00
2018-07-27T13:42:36.120Z,2.17
2018-07-27T13:45:05.824Z,2.30
2018-07-27T13:47:35.028Z,2.27
2018-07-27T13:50:04.556Z,2.17
2018-07-27T13:52:34.656Z,2.20
2018-07-27T13:55:03.940Z,1.95
2018-07-27T13:57:33.276Z,2.12
2018-07-27T14:00:02.352Z,2.12
2018-07-27T14:02:31.713Z,2.22
2018-07-27T14:05:00.941Z,2.25
2018-07-27T14:07:30.289Z,2.30
2018-07-27T14:09:59.442Z,2.27
2018-07-27T14:12:28.661Z,2.30
2018-07-27T14:14:57.863Z,2.33
2018-07-27T14:17:27.039Z,2.50
2018-07-27T14:19:56.252Z,2.60
2018-07-27T14:22:25.409Z,2.70
2018-07-27T14:24:54.628Z,2.22
2018-07-27T14:27:23.899Z,2.35
2018-07-27T14:29:53.164Z,2.47
2018-07-27T14:32:22.339Z,2.22
2018-07-27T14:34:51.572Z,2.27
2018-07-27T14:37:20.759Z,2.50
2018-07-27T14:39:50.176Z,2.50
2018-07-27T14:42:19.455Z,2.02
2018-07-27T14:44:49.466Z,2.47
2018-07-27T14:47:18.637Z,2.72
2018-07-27T14:49:47.864Z,2.22
2018-07-27T14:52:17.111Z,2.52
2018-07-27T14:54:46.180Z,2.20
2018-07-27T14:57:15.690Z,2.20
2018-07-27T14:59:44.825Z,2.20
2018-07-27T15:02:14.005Z,2.05
2018-07-27T15:04:43.233Z,2.10
2018-07-27T15:07:12.408Z,2.10
2018-07-27T15:09:41.642Z,2.20
2018-07-27T15:12:10.875Z,2.47
2018-07-27T15:14:40.105Z,2.22
2018-07-27T15:17:09.412Z,2.02
2018-07-27T15:19:38.578Z,2.20
2018-07-27T15:22:07.711Z,2.45
2018-07-27T15:24:36.925Z,2.27
2018-07-27T15:27:06.237Z,2.40
2018-07-27T15:29:35.056Z,2.30
2018-07-27T15:32:04.118Z,2.62
2018-07-27T15:34:32.917Z,2.50
2018-07-27T15:37:01.640Z,2.52
2018-07-27T15:39:30.676Z,2.27
2018-07-27T15:41:59.514Z,2.20
2018-07-27T15:44:28.912Z,2.27
2018-07-27T15:46:58.027Z,2.20
2018-07-27T15:49:27.174Z,2.20
2018-07-27T15:51:56.358Z,2.20
2018-07-27T15:54:25.503Z,2.15
2018-07-27T15:56:54.623Z,2.15
2018-07-27T15:59:24.075Z,1.90
2018-07-27T16:01:53.297Z,2.10
2018-07-27T16:04:22.480Z,2.17
2018-07-27T16:06:52.835Z,2.00
2018-07-27T16:09:22.033Z,1.95
2018-07-27T16:11:51.338Z,1.72
2018-07-27T16:14:20.748Z,2.05
2018-07-27T16:16:49.898Z,1.90
2018-07-27T16:19:19.020Z,1.67
2018-07-27T16:21:48.357Z,2.08
2018-07-27T16:24:17.711Z,2.00
2018-07-27T16:26:47.054Z,1.90
2018-07-27T16:29:16.192Z,1.98
2018-07-27T16:31:45.618Z,2.15
2018-07-27T16:34:14.923Z,2.10
2018-07-27T16:36:44.026Z,2.10
2018-07-27T16:39:13.352Z,2.08
2018-07-27T16:41:42.744Z,2.27
2018-07-27T16:44:11.905Z,1.98
2018-07-27T16:46:41.071Z,2.37
2018-07-27T16:49:10.345Z,2.20
2018-07-27T16:51:39.453Z,2.40
2018-07-27T16:54:08.666Z,1.85
2018-07-27T16:56:37.866Z,1.85
2018-07-27T16:59:07.137Z,2.20
2018-07-27T17:01:36.509Z,2.35
2018-07-27T17:04:05.654Z,2.08
2018-07-27T17:06:35.112Z,1.90
2018-07-27T17:09:07.865Z,1.85
2018-07-27T17:11:37.062Z,2.27
2018-07-27T17:14:06.712Z,1.90
2018-07-27T17:16:35.955Z,2.15
2018-07-27T17:19:05.289Z,2.15
2018-07-27T17:21:34.865Z,1.90
2018-07-27T17:24:04.149Z,1.90
2018-07-27T17:26:33.525Z,2.00
2018-07-27T17:29:02.393Z,2.05
2018-07-27T17:31:31.518Z,1.70
2018-07-27T17:34:00.663Z,1.65
2018-07-27T17:36:29.897Z,1.85
2018-07-27T17:38:58.693Z,2.10
2018-07-27T17:41:27.759Z,1.82
2018-07-27T17:43:56.989Z,2.10
2018-07-27T17:46:26.156Z,1.77
2018-07-27T17:48:55.594Z,1.90
2018-07-27T17:51:24.979Z,1.90
2018-07-27T17:53:54.484Z,1.90
2018-07-27T17:56:23.687Z,2.05
2018-07-27T17:58:53.205Z,1.87
2018-07-27T18:01:22.700Z,2.10
2018-07-27T18:03:51.934Z,2.00
2018-07-27T18:06:21.225Z,2.40
2018-07-27T18:08:50.461Z,2.10
2018-07-27T18:11:19.696Z,2.00
2018-07-27T18:13:48.930Z,2.08
2018-07-27T18:16:18.298Z,2.20
2018-07-27T18:18:47.408Z,2.50
2018-07-27T18:21:16.599Z,2.35
2018-07-27T18:23:45.782Z,2.20
2018-07-27T18:26:15.174Z,2.40
2018-07-27T18:28:44.415Z,2.20
2018-07-27T18:31:13.582Z,2.42
2018-07-27T18:33:42.785Z,2.83
2018-07-27T18:36:12.001Z,2.30
2018-07-27T18:38:41.260Z,2.53
2018-07-27T18:41:10.437Z,2.87
2018-07-27T18:43:39.647Z,2.80
2018-07-27T18:46:09.253Z,2.95
2018-07-27T18:48:38.335Z,2.93
2018-07-27T18:51:07.440Z,2.67
2018-07-27T18:53:36.577Z,2.87
2018-07-27T18:56:05.764Z,3.10
2018-07-27T18:58:34.866Z,3.10
2018-07-27T19:01:04.033Z,3.00
2018-07-27T19:03:33.171Z,3.00
2018-07-27T19:06:03.392Z,3.00
2018-07-27T19:08:32.345Z,3.00
2018-07-27T19:11:01.403Z,3.07
2018-07-27T19:13:30.564Z,3.00
2018-07-27T19:15:59.748Z,3.27
2018-07-27T19:18:28.877Z,3.27
2018-07-27T19:20:58.069Z,2.83
2018-07-27T19:23:26.956Z,3.57
2018-07-27T19:25:56.988Z,3.27
2018-07-27T19:28:26.816Z,3.07
2018-07-27T19:30:56.013Z,3.20
2018-07-27T19:33:25.168Z,3.17
2018-07-27T19:35:54.374Z,3.10
2018-07-27T19:38:23.562Z,2.90
2018-07-27T19:40:52.834Z,3.23
2018-07-27T19:43:22.049Z,3.40
2018-07-27T19:45:51.400Z,3.03
2018-07-27T19:48:20.552Z,2.93
2018-07-27T19:50:49.680Z,3.17
2018-07-27T19:53:18.883Z,3.57
2018-07-27T19:55:48.069Z,3.10
2018-07-27T19:58:17.275Z,3.00
2018-07-27T20:00:47.101Z,3.20
2018-07-27T20:03:16.226Z,3.37
2018-07-27T20:05:46.329Z,3.40
2018-07-27T20:08:15.820Z,3.07
2018-07-27T20:10:45.043Z,3.43
2018-07-27T20:13:14.342Z,3.13
2018-07-27T20:15:43.508Z,3.70
2018-07-27T20:18:12.601Z,3.43
2018-07-27T20:20:41.812Z,3.43
2018-07-27T20:23:10.918Z,3.80
2018-07-27T20:25:40.104Z,3.40
2018-07-27T20:28:09.276Z,3.60
2018-07-27T20:30:38.555Z,3.87
2018-07-27T20:33:07.908Z,3.70
2018-07-27T20:35:37.014Z,3.77
2018-07-27T20:38:06.345Z,3.37
2018-07-27T20:40:35.716Z,3.90
2018-07-27T20:43:04.955Z,4.60
2018-07-27T20:45:34.108Z,4.53
2018-07-27T20:48:03.279Z,4.10
2018-07-27T20:50:32.536Z,4.37
2018-07-27T20:53:02.475Z,4.67
2018-07-27T20:55:31.731Z,4.40
2018-07-27T20:58:01.116Z,4.83
2018-07-27T21:00:30.343Z,4.60
2018-07-27T21:02:59.587Z,4.40
2018-07-27T21:05:28.716Z,4.97
2018-07-27T21:07:57.912Z,4.80
2018-07-27T21:10:27.073Z,5.33
2018-07-27T21:12:56.308Z,5.40
2018-07-27T21:15:25.492Z,4.83
2018-07-27T21:17:54.747Z,4.80
2018-07-27T21:20:23.901Z,5.03
2018-07-27T21:22:53.060Z,5.00
2018-07-27T21:25:22.364Z,5.57
2018-07-27T21:27:51.600Z,4.93
2018-07-27T21:30:20.817Z,5.10
2018-07-27T21:32:49.992Z,5.13
2018-07-27T21:35:20.354Z,5.10
2018-07-27T21:37:49.830Z,5.30
2018-07-27T21:40:19.018Z,5.20
2018-07-27T21:42:48.237Z,5.67
2018-07-27T21:45:17.436Z,5.60
2018-07-27T21:47:46.887Z,5.10
2018-07-27T21:50:16.240Z,5.17
2018-07-27T21:52:45.529Z,5.33
2018-07-27T21:55:14.836Z,5.93
2018-07-27T21:57:44.472Z,5.63
2018-07-27T22:00:13.884Z,5.23
2018-07-27T22:02:43.273Z,5.50
2018-07-27T22:05:12.677Z,5.80
2018-07-27T22:07:41.857Z,6.07
2018-07-27T22:10:11.070Z,5.27
2018-07-27T22:12:40.264Z,5.40
2018-07-27T22:15:16.034Z,5.23
2018-07-27T22:17:45.520Z,5.70
2018-07-27T22:20:14.763Z,5.60
2018-07-27T22:22:44.008Z,5.57
2018-07-27T22:25:13.324Z,5.00
2018-07-27T22:27:42.828Z,5.37
2018-07-27T22:30:12.598Z,5.37
2018-07-27T22:32:41.904Z,5.83
2018-07-27T22:35:11.143Z,5.73
2018-07-27T22:37:40.848Z,6.17
2018-07-27T22:40:11.379Z,5.57
2018-07-27T22:42:40.686Z,5.60
2018-07-27T22:45:10.712Z,5.60
2018-07-27T22:47:40.077Z,5.80
2018-07-27T22:50:09.228Z,6.33
2018-07-27T22:52:39.532Z,5.73
2018-07-27T22:55:11.241Z,5.87
2018-07-27T22:57:41.522Z,6.00
2018-07-27T23:00:13.608Z,5.87
2018-07-27T23:02:43.093Z,6.30
2018-07-27T23:05:13.131Z,6.10
2018-07-27T23:07:42.628Z,6.00
2018-07-27T23:10:11.836Z,6.20
2018-07-27T23:12:41.063Z,6.47
2018-07-27T23:15:11.944Z,6.30
2018-07-27T23:17:41.027Z,6.80
2018-07-27T23:20:13.350Z,6.03
2018-07-27T23:22:43.438Z,6.10
2018-07-27T23:25:12.605Z,6.40
2018-07-27T23:27:41.748Z,6.90
2018-07-27T23:30:12.361Z,6.80
2018-07-27T23:32:41.996Z,6.37
2018-07-27T23:35:11.167Z,6.40
2018-07-27T23:37:40.358Z,5.93
2018-07-27T23:40:09.667Z,6.13
2018-07-27T23:42:39.068Z,6.40
2018-07-27T23:45:09.179Z,5.93
2018-07-27T23:47:38.596Z,6.47
2018-07-27T23:50:08.193Z,6.47
2018-07-27T23:52:37.468Z,5.97
2018-07-27T23:55:06.808Z,5.57
2018-07-27T23:57:35.969Z,5.40
